createdAt,value
2023-03-05T00:00:37.282Z,992.32
2023-03-05T00:01:37.271Z,992.29
2023-03-05T00:02:37.306Z,992.29
2023-03-05T00:03:37.326Z,992.29
2023-03-05T00:04:37.263Z,992.28
2023-03-05T00:05:37.231Z,992.33
2023-03-05T00:06:37.245Z,992.27
2023-03-05T00:07:37.238Z,992.31
2023-03-05T00:08:37.216Z,992.31
2023-03-05T00:09:37.203Z,992.33
2023-03-05T00:10:37.196Z,992.27
2023-03-05T00:11:37.174Z,992.26
2023-03-05T00:12:37.185Z,992.25
2023-03-05T00:13:37.178Z,992.23
2023-03-05T00:14:37.167Z,992.24
2023-03-05T00:15:37.180Z,992.29
2023-03-05T00:16:37.145Z,992.22
2023-03-05T00:17:37.113Z,992.20
2023-03-05T00:18:37.108Z,992.19
2023-03-05T00:19:37.092Z,992.21
2023-03-05T00:20:37.083Z,992.22
2023-03-05T00:21:37.096Z,992.14
2023-03-05T00:22:37.068Z,992.16
2023-03-05T00:23:37.072Z,992.17
2023-03-05T00:24:37.046Z,992.18
2023-03-05T00:25:37.044Z,992.11
2023-03-05T00:26:37.029Z,992.12
2023-03-05T00:27:37.059Z,992.09
2023-03-05T00:28:37.007Z,992.04
2023-03-05T00:29:37.000Z,992.09
2023-03-05T00:30:37.018Z,992.06
2023-03-05T00:31:37.060Z,992.05
2023-03-05T00:32:36.981Z,992.02
2023-03-05T00:33:36.968Z,992.05
2023-03-05T00:34:36.958Z,991.99
2023-03-05T00:35:36.951Z,991.93
2023-03-05T00:36:36.934Z,991.90
2023-03-05T00:37:36.944Z,991.96
2023-03-05T00:38:36.917Z,991.92
2023-03-05T00:39:36.926Z,991.87
2023-03-05T00:40:36.972Z,991.94
2023-03-05T00:41:36.904Z,991.95
2023-03-05T00:42:36.885Z,991.94
2023-03-05T00:43:36.868Z,991.90
2023-03-05T00:44:36.857Z,991.95
2023-03-05T00:45:36.868Z,991.93
2023-03-05T00:46:36.865Z,991.88
2023-03-05T00:47:36.837Z,991.95
2023-03-05T00:48:36.821Z,991.87
2023-03-05T00:49:36.829Z,991.87
2023-03-05T00:50:36.790Z,991.85
2023-03-05T00:51:36.806Z,991.86
2023-03-05T00:52:36.758Z,991.84
2023-03-05T00:53:36.801Z,991.81
2023-03-05T00:54:36.773Z,991.82
2023-03-05T00:55:36.771Z,991.74
2023-03-05T00:56:36.736Z,991.76
2023-03-05T00:57:36.719Z,991.74
2023-03-05T00:58:36.730Z,991.74
2023-03-05T00:59:36.739Z,991.76
2023-03-05T01:00:36.696Z,991.77
2023-03-05T01:01:36.694Z,991.69
2023-03-05T01:02:36.671Z,991.69
2023-03-05T01:03:37.657Z,991.68
2023-03-05T01:04:36.659Z,991.66
2023-03-05T01:05:36.709Z,991.69
2023-03-05T01:06:36.639Z,991.64
2023-03-05T01:07:36.609Z,991.69
2023-03-05T01:08:36.585Z,991.63
2023-03-05T01:09:36.605Z,991.64
2023-03-05T01:10:36.577Z,991.65
2023-03-05T01:11:36.576Z,991.73
2023-03-05T01:12:36.573Z,991.64
2023-03-05T01:13:36.538Z,991.64
2023-03-05T01:14:36.548Z,991.61
2023-03-05T01:15:36.516Z,991.63
2023-03-05T01:16:37.553Z,991.61
2023-03-05T01:17:36.509Z,991.55
2023-03-05T01:18:36.491Z,991.59
2023-03-05T01:19:36.481Z,991.61
2023-03-05T01:21:08.368Z,991.55
2023-03-05T01:21:36.476Z,991.58
2023-03-05T01:22:36.443Z,991.52
2023-03-05T01:23:36.442Z,991.55
2023-03-05T01:24:36.423Z,991.53
2023-03-05T01:25:36.421Z,991.58
2023-03-05T01:26:36.414Z,991.49
2023-03-05T01:27:36.436Z,991.48
2023-03-05T01:28:36.388Z,991.49
2023-03-05T01:29:36.381Z,991.51
2023-03-05T01:30:36.371Z,991.53
2023-03-05T01:31:36.408Z,991.44
2023-03-05T01:32:36.457Z,991.52
2023-03-05T01:33:36.344Z,991.46
2023-03-05T01:34:36.344Z,991.50
2023-03-05T01:35:36.342Z,991.46
2023-03-05T01:36:36.326Z,991.49
2023-03-05T01:37:36.291Z,991.45
2023-03-05T01:38:36.279Z,991.41
2023-03-05T01:39:36.286Z,991.38
2023-03-05T01:40:36.258Z,991.38
2023-03-05T01:41:36.288Z,991.37
2023-03-05T01:42:36.256Z,991.35
2023-03-05T01:43:36.239Z,991.37
2023-03-05T01:44:36.239Z,991.29
2023-03-05T01:45:36.263Z,991.29
2023-03-05T01:46:36.206Z,991.35
2023-03-05T01:47:36.208Z,991.34
2023-03-05T01:48:36.194Z,991.30
2023-03-05T01:49:36.184Z,991.35
2023-03-05T01:50:36.188Z,991.29
2023-03-05T01:51:36.163Z,991.34
2023-03-05T01:52:36.148Z,991.27
2023-03-05T01:53:36.138Z,991.27
2023-03-05T01:54:36.151Z,991.30
2023-03-05T01:55:36.118Z,991.33
2023-03-05T01:56:36.114Z,991.29
2023-03-05T01:57:36.109Z,991.29
2023-03-05T01:58:36.087Z,991.22
2023-03-05T01:59:36.099Z,991.29
2023-03-05T02:00:36.069Z,991.27
2023-03-05T02:01:36.060Z,991.20
2023-03-05T02:02:36.050Z,991.20
2023-03-05T02:03:36.082Z,991.13
2023-03-05T02:04:36.041Z,991.15
2023-03-05T02:05:36.019Z,991.16
2023-03-05T02:06:35.997Z,991.22
2023-03-05T02:07:36.001Z,991.12
2023-03-05T02:08:35.981Z,991.17
2023-03-05T02:09:36.000Z,991.19
2023-03-05T02:10:35.969Z,991.17
2023-03-05T02:11:35.955Z,991.13
2023-03-05T02:12:35.942Z,991.10
2023-03-05T02:13:35.963Z,991.08
2023-03-05T02:14:35.944Z,991.09
2023-03-05T02:15:35.924Z,991.14
2023-03-05T02:16:36.047Z,991.07
2023-03-05T02:17:35.898Z,991.03
2023-03-05T02:18:35.915Z,991.04
2023-03-05T02:19:35.904Z,991.04
2023-03-05T02:20:35.876Z,991.04
2023-03-05T02:21:35.862Z,991.09
2023-03-05T02:22:35.879Z,991.09
2023-03-05T02:23:35.854Z,991.08
2023-03-05T02:24:35.834Z,991.06
2023-03-05T02:25:35.864Z,991.12
2023-03-05T02:26:35.813Z,991.13
2023-03-05T02:27:35.813Z,991.07
2023-03-05T02:28:35.803Z,991.14
2023-03-05T02:29:35.796Z,991.15
2023-03-05T02:30:35.797Z,991.09
2023-03-05T02:31:35.789Z,991.06
2023-03-05T02:32:35.836Z,991.09
2023-03-05T02:33:35.748Z,991.08
2023-03-05T02:34:35.750Z,991.09
2023-03-05T02:35:35.754Z,991.05
2023-03-05T02:36:35.719Z,991.03
2023-03-05T02:37:35.748Z,991.00
2023-03-05T02:38:35.708Z,991.05
2023-03-05T02:39:35.692Z,991.01
2023-03-05T02:40:35.686Z,991.00
2023-03-05T02:41:35.663Z,991.00
2023-03-05T02:42:36.690Z,990.99
2023-03-05T02:43:35.686Z,991.06
2023-03-05T02:44:35.661Z,991.00
2023-03-05T02:45:35.637Z,990.99
2023-03-05T02:46:35.626Z,991.00
2023-03-05T02:47:35.629Z,990.95
2023-03-05T02:48:35.598Z,990.99
2023-03-05T02:49:35.583Z,990.95
2023-03-05T02:50:35.612Z,990.90
2023-03-05T02:51:35.575Z,990.85
2023-03-05T02:52:35.573Z,990.87
2023-03-05T02:53:35.581Z,990.85
2023-03-05T02:54:35.568Z,990.86
2023-03-05T02:55:36.532Z,990.84
2023-03-05T02:56:35.519Z,990.93
2023-03-05T02:57:35.523Z,990.90
2023-03-05T02:58:35.510Z,990.85
2023-03-05T02:59:35.556Z,990.97
2023-03-05T03:00:35.484Z,990.84
2023-03-05T03:01:35.541Z,990.83
2023-03-05T03:02:35.480Z,990.83
2023-03-05T03:03:35.524Z,990.78
2023-03-05T03:04:35.446Z,990.84
2023-03-05T03:05:35.475Z,990.85
2023-03-05T03:06:35.445Z,990.83
2023-03-05T03:07:35.454Z,990.76
2023-03-05T03:08:35.425Z,990.73
2023-03-05T03:09:35.412Z,990.76
2023-03-05T03:10:35.389Z,990.71
2023-03-05T03:11:35.365Z,990.76
2023-03-05T03:12:35.398Z,990.76
2023-03-05T03:13:35.366Z,990.76
2023-03-05T03:14:35.366Z,990.70
2023-03-05T03:15:35.365Z,990.72
2023-03-05T03:16:35.450Z,990.72
2023-03-05T03:17:35.329Z,990.66
2023-03-05T03:18:35.309Z,990.65
2023-03-05T03:19:35.295Z,990.68
2023-03-05T03:20:35.343Z,990.67
2023-03-05T03:21:35.303Z,990.69
2023-03-05T03:22:35.282Z,990.67
2023-03-05T03:23:35.264Z,990.59
2023-03-05T03:24:35.256Z,990.59
2023-03-05T03:25:35.271Z,990.50
2023-03-05T03:26:35.231Z,990.52
2023-03-05T03:27:35.222Z,990.52
2023-03-05T03:28:35.214Z,990.47
2023-03-05T03:29:35.212Z,990.49
2023-03-05T03:30:35.261Z,990.46
2023-03-05T03:31:35.193Z,990.40
2023-03-05T03:32:35.264Z,990.43
2023-03-05T03:33:35.182Z,990.48
2023-03-05T03:34:35.152Z,990.49
2023-03-05T03:35:35.186Z,990.47
2023-03-05T03:36:35.124Z,990.41
2023-03-05T03:37:35.132Z,990.44
2023-03-05T03:38:35.106Z,990.43
2023-03-05T03:39:35.102Z,990.36
2023-03-05T03:40:35.113Z,990.33
2023-03-05T03:41:35.080Z,990.38
2023-03-05T03:42:35.085Z,990.38
2023-03-05T03:43:35.092Z,990.36
2023-03-05T03:44:35.052Z,990.32
2023-03-05T03:45:35.079Z,990.35
2023-03-05T03:46:36.036Z,990.31
2023-03-05T03:47:35.024Z,990.26
2023-03-05T03:48:35.009Z,990.30
2023-03-05T03:49:35.009Z,990.33
2023-03-05T03:50:35.005Z,990.29
2023-03-05T03:51:35.008Z,990.27
2023-03-05T03:52:34.971Z,990.28
2023-03-05T03:53:34.974Z,990.23
2023-03-05T03:54:34.984Z,990.24
2023-03-05T03:55:34.943Z,990.23
2023-03-05T03:56:34.945Z,990.20
2023-03-05T03:57:34.935Z,990.16
2023-03-05T03:58:34.951Z,990.13
2023-03-05T03:59:34.898Z,990.11
2023-03-05T04:00:34.899Z,990.14
2023-03-05T04:01:34.882Z,990.12
2023-03-05T04:02:34.942Z,990.12
2023-03-05T04:03:34.870Z,990.11
2023-03-05T04:04:34.886Z,990.02
2023-03-05T04:05:34.841Z,990.03
2023-03-05T04:06:34.863Z,990.01
2023-03-05T04:07:34.879Z,989.99
2023-03-05T04:08:34.839Z,990.03
2023-03-05T04:09:34.811Z,990.05
2023-03-05T04:10:34.794Z,989.98
2023-03-05T04:11:34.791Z,990.01
2023-03-05T04:12:34.782Z,989.99
2023-03-05T04:13:34.768Z,990.03
2023-03-05T04:14:34.769Z,989.98
2023-03-05T04:15:34.745Z,989.94
2023-03-05T04:16:34.766Z,989.94
2023-03-05T04:17:34.731Z,989.96
2023-03-05T04:18:34.731Z,989.92
2023-03-05T04:19:34.711Z,989.91
2023-03-05T04:20:34.693Z,989.91
2023-03-05T04:21:34.701Z,989.86
2023-03-05T04:22:34.681Z,989.90
2023-03-05T04:23:34.665Z,989.92
2023-03-05T04:24:34.674Z,989.89
2023-03-05T04:25:34.666Z,989.89
2023-03-05T04:26:34.639Z,989.87
2023-03-05T04:27:34.619Z,989.82
2023-03-05T04:28:34.624Z,989.78
2023-03-05T04:29:34.635Z,989.78
2023-03-05T04:30:34.616Z,989.82
2023-03-05T04:31:34.669Z,989.77
2023-03-05T04:32:34.684Z,989.73
2023-03-05T04:33:34.571Z,989.77
2023-03-05T04:34:34.557Z,989.82
2023-03-05T04:35:34.607Z,989.77
2023-03-05T04:36:34.555Z,989.77
2023-03-05T04:37:34.529Z,989.79
2023-03-05T04:38:34.517Z,989.72
2023-03-05T04:39:34.525Z,989.69
2023-03-05T04:40:34.508Z,989.72
2023-03-05T04:41:34.511Z,989.64
2023-03-05T04:42:34.489Z,989.61
2023-03-05T04:43:34.481Z,989.63
2023-03-05T04:44:34.468Z,989.67
2023-03-05T04:45:34.453Z,989.63
2023-03-05T04:46:34.487Z,989.61
2023-03-05T04:47:34.417Z,989.62
2023-03-05T04:48:34.424Z,989.62
2023-03-05T04:49:34.411Z,989.55
2023-03-05T04:50:34.399Z,989.64
2023-03-05T04:51:34.385Z,989.58
2023-03-05T04:52:34.393Z,989.61
2023-03-05T04:53:34.363Z,989.60
2023-03-05T04:54:34.358Z,989.59
2023-03-05T04:55:34.364Z,989.54
2023-03-05T04:56:34.331Z,989.64
2023-03-05T04:57:34.330Z,989.55
2023-03-05T04:58:34.322Z,989.55
2023-03-05T04:59:34.305Z,989.50
2023-03-05T05:00:34.296Z,989.53
2023-03-05T05:01:34.333Z,989.52
2023-03-05T05:02:34.309Z,989.52
2023-03-05T05:03:34.264Z,989.49
2023-03-05T05:04:34.277Z,989.47
2023-03-05T05:05:34.252Z,989.47
2023-03-05T05:06:34.262Z,989.43
2023-03-05T05:07:34.215Z,989.44
2023-03-05T05:08:34.202Z,989.45
2023-03-05T05:09:34.197Z,989.45
2023-03-05T05:10:34.202Z,989.44
2023-03-05T05:11:34.179Z,989.47
2023-03-05T05:12:34.192Z,989.43
2023-03-05T05:13:34.161Z,989.42
2023-03-05T05:14:34.140Z,989.42
2023-03-05T05:15:34.156Z,989.37
2023-03-05T05:16:34.298Z,989.38
2023-03-05T05:17:34.121Z,989.35
2023-03-05T05:18:34.100Z,989.36
2023-03-05T05:19:34.212Z,989.39
2023-03-05T05:20:34.091Z,989.36
2023-03-05T05:21:34.081Z,989.35
2023-03-05T05:22:34.080Z,989.41
2023-03-05T05:23:34.070Z,989.39
2023-03-05T05:24:34.118Z,989.44
2023-03-05T05:25:34.048Z,989.45
2023-03-05T05:26:34.042Z,989.41
2023-03-05T05:27:34.028Z,989.41
2023-03-05T05:28:34.019Z,989.40
2023-03-05T05:29:34.029Z,989.40
2023-03-05T05:30:34.021Z,989.47
2023-03-05T05:31:34.023Z,989.36
2023-03-05T05:32:34.036Z,989.38
2023-03-05T05:33:33.964Z,989.43
2023-03-05T05:34:34.959Z,989.45
2023-03-05T05:35:34.007Z,989.43
2023-03-05T05:36:33.936Z,989.40
2023-03-05T05:37:33.942Z,989.42
2023-03-05T05:38:33.916Z,989.38
2023-03-05T05:39:33.907Z,989.42
2023-03-05T05:40:33.903Z,989.43
2023-03-05T05:41:33.907Z,989.43
2023-03-05T05:42:33.883Z,989.45
2023-03-05T05:43:33.870Z,989.42
2023-03-05T05:44:33.855Z,989.46
2023-03-05T05:45:34.036Z,989.43
2023-03-05T05:46:33.863Z,989.40
2023-03-05T05:47:33.833Z,989.44
2023-03-05T05:48:33.814Z,989.40
2023-03-05T05:49:33.805Z,989.47
2023-03-05T05:50:33.832Z,989.42
2023-03-05T05:51:33.791Z,989.44
2023-03-05T05:52:33.774Z,989.46
2023-03-05T05:53:33.765Z,989.43
2023-03-05T05:54:33.761Z,989.39
2023-03-05T05:55:33.766Z,989.37
2023-03-05T05:56:33.738Z,989.41
2023-03-05T05:57:33.720Z,989.43
2023-03-05T05:58:33.722Z,989.35
2023-03-05T05:59:33.738Z,989.34
2023-03-05T06:00:33.709Z,989.31
2023-03-05T06:01:33.738Z,989.35
2023-03-05T06:02:33.674Z,989.34
2023-03-05T06:03:33.674Z,989.41
2023-03-05T06:04:33.673Z,989.41
2023-03-05T06:05:33.642Z,989.37
2023-03-05T06:06:33.639Z,989.43
2023-03-05T06:07:33.624Z,989.40
2023-03-05T06:08:33.634Z,989.48
2023-03-05T06:09:33.626Z,989.44
2023-03-05T06:10:33.613Z,989.39
2023-03-05T06:11:33.599Z,989.40
2023-03-05T06:12:33.593Z,989.41
2023-03-05T06:13:33.573Z,989.39
2023-03-05T06:14:33.568Z,989.41
2023-03-05T06:15:33.579Z,989.39
2023-03-05T06:16:33.651Z,989.39
2023-03-05T06:17:33.544Z,989.35
2023-03-05T06:18:33.522Z,989.34
2023-03-05T06:19:33.512Z,989.37
2023-03-05T06:20:33.538Z,989.37
2023-03-05T06:21:33.502Z,989.39
2023-03-05T06:22:33.491Z,989.36
2023-03-05T06:23:33.467Z,989.32
2023-03-05T06:24:33.465Z,989.37
2023-03-05T06:25:33.461Z,989.43
2023-03-05T06:26:33.477Z,989.41
2023-03-05T06:27:33.446Z,989.40
2023-03-05T06:28:33.427Z,989.47
2023-03-05T06:29:33.419Z,989.43
2023-03-05T06:30:33.429Z,989.41
2023-03-05T06:31:34.618Z,989.42
2023-03-05T06:32:33.452Z,989.40
2023-03-05T06:33:33.392Z,989.36
2023-03-05T06:34:33.374Z,989.35
2023-03-05T06:35:33.379Z,989.42
2023-03-05T06:36:33.358Z,989.40
2023-03-05T06:37:33.359Z,989.45
2023-03-05T06:38:33.328Z,989.32
2023-03-05T06:39:33.314Z,989.40
2023-03-05T06:40:33.372Z,989.39
2023-03-05T06:41:33.334Z,989.35
2023-03-05T06:42:33.291Z,989.29
2023-03-05T06:43:33.285Z,989.32
2023-03-05T06:44:33.266Z,989.31
2023-03-05T06:45:33.267Z,989.34
2023-03-05T06:46:33.274Z,989.34
2023-03-05T06:47:33.256Z,989.31
2023-03-05T06:48:33.237Z,989.32
2023-03-05T06:49:33.235Z,989.33
2023-03-05T06:50:33.222Z,989.27
2023-03-05T06:51:33.243Z,989.37
2023-03-05T06:52:33.207Z,989.35
2023-03-05T06:53:33.183Z,989.26
2023-03-05T06:54:33.200Z,989.32
2023-03-05T06:55:33.180Z,989.34
2023-03-05T06:56:33.172Z,989.32
2023-03-05T06:57:33.160Z,989.27
2023-03-05T06:58:33.146Z,989.26
2023-03-05T06:59:33.134Z,989.23
2023-03-05T07:00:33.127Z,989.24
2023-03-05T07:01:33.225Z,989.27
2023-03-05T07:02:33.150Z,989.29
2023-03-05T07:03:33.085Z,989.24
2023-03-05T07:04:33.083Z,989.21
2023-03-05T07:05:34.204Z,989.21
2023-03-05T07:06:34.076Z,989.20
2023-03-05T07:07:33.046Z,989.13
2023-03-05T07:08:33.047Z,989.11
2023-03-05T07:09:33.029Z,989.11
2023-03-05T07:10:33.020Z,989.08
2023-03-05T07:11:33.031Z,989.11
2023-03-05T07:12:33.001Z,989.03
2023-03-05T07:13:33.012Z,989.04
2023-03-05T07:14:32.975Z,989.13
2023-03-05T07:15:32.993Z,989.05
2023-03-05T07:16:32.957Z,989.06
2023-03-05T07:17:32.954Z,989.10
2023-03-05T07:18:32.983Z,989.11
2023-03-05T07:19:32.991Z,989.12
2023-03-05T07:20:47.899Z,989.04
2023-03-05T07:22:04.812Z,989.03
2023-03-05T07:22:32.906Z,989.03
2023-03-05T07:23:32.899Z,989.01
2023-03-05T07:24:32.903Z,989.09
2023-03-05T07:25:32.893Z,989.04
2023-03-05T07:26:32.892Z,989.04
2023-03-05T07:27:32.860Z,989.02
2023-03-05T07:28:32.929Z,988.98
2023-03-05T07:29:32.851Z,989.03
2023-03-05T07:30:32.818Z,989.04
2023-03-05T07:31:32.851Z,989.07
2023-03-05T07:32:32.840Z,988.99
2023-03-05T07:33:32.806Z,988.99
2023-03-05T07:34:32.799Z,988.93
2023-03-05T07:35:32.803Z,989.00
2023-03-05T07:36:32.785Z,989.02
2023-03-05T07:37:32.766Z,989.02
2023-03-05T07:38:32.739Z,989.03
2023-03-05T07:39:32.737Z,989.02
2023-03-05T07:40:32.747Z,989.06
2023-03-05T07:41:32.725Z,989.10
2023-03-05T07:42:32.744Z,988.98
2023-03-05T07:43:32.702Z,989.02
2023-03-05T07:44:32.688Z,989.09
2023-03-05T07:45:32.706Z,988.94
2023-03-05T07:46:32.773Z,988.96
2023-03-05T07:47:32.667Z,988.95
2023-03-05T07:48:32.653Z,988.99
2023-03-05T07:49:32.627Z,989.00
2023-03-05T07:50:32.626Z,989.01
2023-03-05T07:51:32.675Z,989.01
2023-03-05T07:52:32.607Z,989.00
2023-03-05T07:53:32.600Z,988.98
2023-03-05T07:54:32.588Z,988.98
2023-03-05T07:55:32.587Z,989.02
2023-03-05T07:56:32.574Z,989.02
2023-03-05T07:57:32.571Z,988.96
2023-03-05T07:58:32.560Z,989.04
2023-03-05T07:59:32.568Z,989.01
2023-03-05T08:00:32.532Z,989.06
2023-03-05T08:01:32.540Z,989.00
2023-03-05T08:02:32.567Z,988.97
2023-03-05T08:03:32.499Z,989.02
2023-03-05T08:04:32.540Z,988.95
2023-03-05T08:05:32.474Z,989.01
2023-03-05T08:06:32.478Z,988.99
2023-03-05T08:07:32.462Z,989.06
2023-03-05T08:08:32.486Z,989.05
2023-03-05T08:09:32.439Z,988.92
2023-03-05T08:10:32.427Z,989.09
2023-03-05T08:11:32.422Z,989.03
2023-03-05T08:12:32.410Z,989.09
2023-03-05T08:13:32.421Z,989.06
2023-03-05T08:14:32.402Z,989.04
2023-03-05T08:15:32.400Z,989.03
2023-03-05T08:16:32.381Z,989.09
2023-03-05T08:17:32.385Z,989.00
2023-03-05T08:18:32.358Z,988.97
2023-03-05T08:19:32.379Z,988.98
2023-03-05T08:20:32.341Z,988.91
2023-03-05T08:21:32.361Z,988.90
2023-03-05T08:22:32.316Z,988.88
2023-03-05T08:23:32.317Z,988.88
2023-03-05T08:24:32.310Z,988.84
2023-03-05T08:25:32.309Z,988.86
2023-03-05T08:26:32.306Z,988.83
2023-03-05T08:27:32.269Z,988.79
2023-03-05T08:28:34.311Z,988.86
2023-03-05T08:29:32.254Z,988.85
2023-03-05T08:30:32.245Z,988.83
2023-03-05T08:31:32.296Z,988.79
2023-03-05T08:32:32.371Z,988.80
2023-03-05T08:33:33.841Z,988.76
2023-03-05T08:34:32.207Z,988.75
2023-03-05T08:35:32.225Z,988.72
2023-03-05T08:36:32.217Z,988.76
2023-03-05T08:37:32.174Z,988.72
2023-03-05T08:38:32.164Z,988.75
2023-03-05T08:39:32.194Z,988.75
2023-03-05T08:40:32.161Z,988.76
2023-03-05T08:41:32.159Z,988.77
2023-03-05T08:42:32.125Z,988.73
2023-03-05T08:43:32.119Z,988.68
2023-03-05T08:44:32.124Z,988.71
2023-03-05T08:45:32.097Z,988.68
2023-03-05T08:46:32.154Z,988.69
2023-03-05T08:47:32.081Z,988.67
2023-03-05T08:48:32.090Z,988.61
2023-03-05T08:49:32.061Z,988.63
2023-03-05T08:50:32.055Z,988.61
2023-03-05T08:51:32.034Z,988.62
2023-03-05T08:52:32.013Z,988.61
2023-03-05T08:53:32.026Z,988.60
2023-03-05T08:54:32.029Z,988.48
2023-03-05T08:55:31.981Z,988.51
2023-03-05T08:56:31.985Z,988.48
2023-03-05T08:57:31.973Z,988.49
2023-03-05T08:58:31.951Z,988.52
2023-03-05T08:59:31.961Z,988.46
2023-03-05T09:00:31.938Z,988.46
2023-03-05T09:01:31.997Z,988.46
2023-03-05T09:02:31.934Z,988.42
2023-03-05T09:03:31.908Z,988.37
2023-03-05T09:04:31.920Z,988.38
2023-03-05T09:05:31.892Z,988.38
2023-03-05T09:06:31.898Z,988.28
2023-03-05T09:07:31.902Z,988.35
2023-03-05T09:08:31.867Z,988.37
2023-03-05T09:09:31.849Z,988.31
2023-03-05T09:10:31.834Z,988.30
2023-03-05T09:11:31.820Z,988.34
2023-03-05T09:12:31.832Z,988.26
2023-03-05T09:13:31.804Z,988.30
2023-03-05T09:14:31.797Z,988.30
2023-03-05T09:15:32.810Z,988.34
2023-03-05T09:16:31.840Z,988.25
2023-03-05T09:17:31.765Z,988.29
2023-03-05T09:18:31.765Z,988.30
2023-03-05T09:19:31.749Z,988.28
2023-03-05T09:20:31.746Z,988.25
2023-03-05T09:21:31.736Z,988.28
2023-03-05T09:22:31.747Z,988.32
2023-03-05T09:23:31.707Z,988.35
2023-03-05T09:24:31.696Z,988.36
2023-03-05T09:25:31.708Z,988.26
2023-03-05T09:26:31.680Z,988.28
2023-03-05T09:27:31.670Z,988.25
2023-03-05T09:28:31.665Z,988.19
2023-03-05T09:29:31.664Z,988.24
2023-03-05T09:30:31.639Z,988.21
2023-03-05T09:31:31.651Z,988.22
2023-03-05T09:32:31.680Z,988.20
2023-03-05T09:33:31.615Z,988.21
2023-03-05T09:34:31.621Z,988.16
2023-03-05T09:35:31.623Z,988.20
2023-03-05T09:36:31.595Z,988.20
2023-03-05T09:37:31.564Z,988.13
2023-03-05T09:38:31.569Z,988.12
2023-03-05T09:39:31.569Z,988.10
2023-03-05T09:40:31.535Z,988.08
2023-03-05T09:41:31.537Z,988.01
2023-03-05T09:42:31.534Z,988.04
2023-03-05T09:43:31.535Z,988.07
2023-03-05T09:44:31.536Z,988.03
2023-03-05T09:45:31.536Z,987.98
2023-03-05T09:46:31.489Z,988.04
2023-03-05T09:47:31.474Z,988.05
2023-03-05T09:48:31.458Z,988.08
2023-03-05T09:49:31.471Z,988.01
2023-03-05T09:50:31.434Z,988.00
2023-03-05T09:51:31.433Z,988.01
2023-03-05T09:52:31.445Z,988.01
2023-03-05T09:53:31.573Z,988.04
2023-03-05T09:54:32.393Z,988.11
2023-03-05T09:55:32.389Z,988.05
2023-03-05T09:56:31.390Z,988.04
2023-03-05T09:57:31.363Z,988.06
2023-03-05T09:58:31.373Z,988.06
2023-03-05T09:59:31.361Z,988.00
2023-03-05T10:00:31.371Z,987.99
2023-03-05T10:01:31.334Z,988.01
2023-03-05T10:02:31.358Z,988.05
2023-03-05T10:03:31.378Z,988.00
2023-03-05T10:04:31.304Z,988.07
2023-03-05T10:05:31.309Z,988.00
2023-03-05T10:06:31.293Z,988.00
2023-03-05T10:07:31.300Z,987.96
2023-03-05T10:08:31.281Z,988.02
2023-03-05T10:09:31.260Z,987.99
2023-03-05T10:10:31.257Z,987.97
2023-03-05T10:11:31.254Z,987.94
2023-03-05T10:12:31.251Z,987.97
2023-03-05T10:13:31.247Z,987.96
2023-03-05T10:14:31.205Z,987.92
2023-03-05T10:15:32.114Z,987.95
2023-03-05T10:16:32.218Z,987.93
2023-03-05T10:17:31.198Z,987.93
2023-03-05T10:18:31.172Z,987.95
2023-03-05T10:19:31.160Z,987.90
2023-03-05T10:20:31.184Z,987.88
2023-03-05T10:21:31.163Z,987.82
2023-03-05T10:22:31.140Z,987.84
2023-03-05T10:23:31.132Z,987.83
2023-03-05T10:24:31.118Z,987.81
2023-03-05T10:25:31.088Z,987.80
2023-03-05T10:26:31.089Z,987.74
2023-03-05T10:27:31.142Z,987.74
2023-03-05T10:28:31.063Z,987.71
2023-03-05T10:29:31.066Z,987.68
2023-03-05T10:30:31.044Z,987.71
2023-03-05T10:31:31.136Z,987.68
2023-03-05T10:32:31.098Z,987.69
2023-03-05T10:33:33.560Z,987.66
2023-03-05T10:34:32.046Z,987.71
2023-03-05T10:35:31.021Z,987.60
2023-03-05T10:36:30.984Z,987.67
2023-03-05T10:37:31.016Z,987.61
2023-03-05T10:38:30.968Z,987.56
2023-03-05T10:39:30.955Z,987.55
2023-03-05T10:40:30.938Z,987.62
2023-03-05T10:41:30.944Z,987.52
2023-03-05T10:42:31.385Z,987.55
2023-03-05T10:43:30.932Z,987.47
2023-03-05T10:44:30.928Z,987.57
2023-03-05T10:45:30.945Z,987.54
2023-03-05T10:46:30.892Z,987.65
2023-03-05T10:47:30.907Z,987.56
2023-03-05T10:48:30.871Z,987.57
2023-03-05T10:49:30.887Z,987.59
2023-03-05T10:50:30.871Z,987.57
2023-03-05T10:51:30.859Z,987.56
2023-03-05T10:52:31.833Z,987.52
2023-03-05T10:53:30.824Z,987.55
2023-03-05T10:54:30.862Z,987.54
2023-03-05T10:55:30.803Z,987.58
2023-03-05T10:56:30.792Z,987.54
2023-03-05T10:57:31.790Z,987.52
2023-03-05T10:58:30.777Z,987.54
2023-03-05T10:59:30.751Z,987.47
2023-03-05T11:00:30.751Z,987.44
2023-03-05T11:01:30.796Z,987.43
2023-03-05T11:02:30.761Z,987.41
2023-03-05T11:03:30.730Z,987.46
2023-03-05T11:04:30.725Z,987.43
2023-03-05T11:05:30.688Z,987.37
2023-03-05T11:06:30.718Z,987.40
2023-03-05T11:07:30.690Z,987.38
2023-03-05T11:08:30.671Z,987.40
2023-03-05T11:09:30.634Z,987.36
2023-03-05T11:10:30.634Z,987.36
2023-03-05T11:11:30.629Z,987.28
2023-03-05T11:12:30.612Z,987.34
2023-03-05T11:13:30.641Z,987.30
2023-03-05T11:14:30.586Z,987.35
2023-03-05T11:15:30.590Z,987.28
2023-03-05T11:16:30.576Z,987.26
2023-03-05T11:17:30.694Z,987.26
2023-03-05T11:18:30.577Z,987.26
2023-03-05T11:19:30.549Z,987.25
2023-03-05T11:20:30.572Z,987.23
2023-03-05T11:21:30.526Z,987.18
2023-03-05T11:22:30.529Z,987.20
2023-03-05T11:23:30.513Z,987.18
2023-03-05T11:24:30.513Z,987.24
2023-03-05T11:25:30.502Z,987.15
2023-03-05T11:26:30.477Z,987.20
2023-03-05T11:27:30.478Z,987.19
2023-03-05T11:28:33.585Z,987.17
2023-03-05T11:29:31.449Z,987.15
2023-03-05T11:30:30.429Z,987.16
2023-03-05T11:31:30.442Z,987.16
2023-03-05T11:32:30.513Z,987.15
2023-03-05T11:33:30.403Z,987.12
2023-03-05T11:34:30.410Z,987.03
2023-03-05T11:35:30.411Z,987.04
2023-03-05T11:36:30.397Z,987.01
2023-03-05T11:37:30.372Z,986.96
2023-03-05T11:38:30.368Z,986.98
2023-03-05T11:39:30.348Z,986.94
2023-03-05T11:40:30.336Z,986.98
2023-03-05T11:41:30.324Z,986.91
2023-03-05T11:42:30.308Z,986.89
2023-03-05T11:43:30.348Z,986.92
2023-03-05T11:44:30.293Z,986.88
2023-03-05T11:45:30.273Z,986.86
2023-03-05T11:46:30.384Z,986.86
2023-03-05T11:47:30.271Z,986.89
2023-03-05T11:48:30.270Z,986.87
2023-03-05T11:49:30.262Z,986.84
2023-03-05T11:50:30.265Z,986.91
2023-03-05T11:51:30.253Z,986.86
2023-03-05T11:52:30.208Z,986.90
2023-03-05T11:53:30.217Z,986.85
2023-03-05T11:54:30.205Z,986.77
2023-03-05T11:55:30.186Z,986.80
2023-03-05T11:56:30.176Z,986.80
2023-03-05T11:57:30.163Z,986.76
2023-03-05T11:58:30.178Z,986.73
2023-03-05T11:59:30.153Z,986.78
2023-03-05T12:00:30.139Z,986.77
2023-03-05T12:01:30.125Z,986.77
2023-03-05T12:02:30.120Z,986.77
2023-03-05T12:03:30.157Z,986.77
2023-03-05T12:04:31.090Z,986.73
2023-03-05T12:05:30.106Z,986.70
2023-03-05T12:06:30.087Z,986.77
2023-03-05T12:07:30.073Z,986.73
2023-03-05T12:08:30.075Z,986.77
2023-03-05T12:09:30.037Z,986.72
2023-03-05T12:10:30.076Z,986.73
2023-03-05T12:11:30.075Z,986.71
2023-03-05T12:12:30.036Z,986.68
2023-03-05T12:13:29.995Z,986.74
2023-03-05T12:14:31.005Z,986.77
2023-03-05T12:15:29.993Z,986.79
2023-03-05T12:16:30.086Z,986.77
2023-03-05T12:17:29.970Z,986.77
2023-03-05T12:18:29.966Z,986.76
2023-03-05T12:19:29.945Z,986.79
2023-03-05T12:20:29.982Z,986.81
2023-03-05T12:21:29.972Z,986.77
2023-03-05T12:22:29.923Z,986.75
2023-03-05T12:23:29.908Z,986.73
2023-03-05T12:24:29.906Z,986.72
2023-03-05T12:25:29.878Z,986.64
2023-03-05T12:26:29.912Z,986.70
2023-03-05T12:27:29.869Z,986.76
2023-03-05T12:28:29.853Z,986.68